sensor_id;sensor_type;location;lat;lon;timestamp;temperature;humidity
17296;DHT22;8766;51.480;6.872;2023-06-14T00:00:53;22.80;34.90
17296;DHT22;8766;51.480;6.872;2023-06-14T00:03:22;22.70;34.90
17296;DHT22;8766;51.480;6.872;2023-06-14T00:05:51;22.70;34.90
17296;DHT22;8766;51.480;6.872;2023-06-14T00:08:18;22.70;35.00
17296;DHT22;8766;51.480;6.872;2023-06-14T00:10:46;22.60;35.00
17296;DHT22;8766;51.480;6.872;2023-06-14T00:13:13;22.60;35.00
17296;DHT22;8766;51.480;6.872;2023-06-14T00:15:40;22.50;35.00
17296;DHT22;8766;51.480;6.872;2023-06-14T00:18:08;22.50;35.10
17296;DHT22;8766;51.480;6.872;2023-06-14T00:20:37;22.50;35.10
17296;DHT22;8766;51.480;6.872;2023-06-14T00:23:06;22.50;35.10
17296;DHT22;8766;51.480;6.872;2023-06-14T00:25:33;22.50;35.20
17296;DHT22;8766;51.480;6.872;2023-06-14T00:28:00;22.40;35.20
17296;DHT22;8766;51.480;6.872;2023-06-14T00:30:27;22.40;35.30
17296;DHT22;8766;51.480;6.872;2023-06-14T00:32:56;22.40;35.30
17296;DHT22;8766;51.480;6.872;2023-06-14T00:35:23;22.30;35.30
17296;DHT22;8766;51.480;6.872;2023-06-14T00:37:50;22.30;35.30
17296;DHT22;8766;51.480;6.872;2023-06-14T00:40:19;22.30;35.30
17296;DHT22;8766;51.480;6.872;2023-06-14T00:42:46;22.30;35.30
17296;DHT22;8766;51.480;6.872;2023-06-14T00:45:13;22.30;35.40
17296;DHT22;8766;51.480;6.872;2023-06-14T00:47:41;22.20;35.40
17296;DHT22;8766;51.480;6.872;2023-06-14T00:50:09;22.20;35.40
17296;DHT22;8766;51.480;6.872;2023-06-14T00:52:36;22.20;35.50
17296;DHT22;8766;51.480;6.872;2023-06-14T00:55:04;22.20;35.50
17296;DHT22;8766;51.480;6.872;2023-06-14T00:57:33;22.20;35.50
17296;DHT22;8766;51.480;6.872;2023-06-14T01:00:03;22.10;35.50
17296;DHT22;8766;51.480;6.872;2023-06-14T01:02:34;22.10;35.50
17296;DHT22;8766;51.480;6.872;2023-06-14T01:05:02;22.10;35.60
17296;DHT22;8766;51.480;6.872;2023-06-14T01:07:43;22.00;35.60
17296;DHT22;8766;51.480;6.872;2023-06-14T01:10:26;22.00;35.70
17296;DHT22;8766;51.480;6.872;2023-06-14T01:13:09;22.00;35.70
17296;DHT22;8766;51.480;6.872;2023-06-14T01:15:38;21.90;35.70
17296;DHT22;8766;51.480;6.872;2023-06-14T01:18:06;21.90;35.80
17296;DHT22;8766;51.480;6.872;2023-06-14T01:20:34;21.80;35.70
17296;DHT22;8766;51.480;6.872;2023-06-14T01:23:04;21.80;35.80
17296;DHT22;8766;51.480;6.872;2023-06-14T01:25:31;21.80;35.80
17296;DHT22;8766;51.480;6.872;2023-06-14T01:28:01;21.80;35.80
17296;DHT22;8766;51.480;6.872;2023-06-14T01:30:29;21.70;35.80
17296;DHT22;8766;51.480;6.872;2023-06-14T01:32:58;21.70;35.90
17296;DHT22;8766;51.480;6.872;2023-06-14T01:35:26;21.70;35.90
17296;DHT22;8766;51.480;6.872;2023-06-14T01:37:53;21.70;35.90
17296;DHT22;8766;51.480;6.872;2023-06-14T01:40:22;21.70;35.90
17296;DHT22;8766;51.480;6.872;2023-06-14T01:42:50;21.70;36.00
17296;DHT22;8766;51.480;6.872;2023-06-14T01:45:18;21.60;35.90
17296;DHT22;8766;51.480;6.872;2023-06-14T01:47:46;21.60;36.00
17296;DHT22;8766;51.480;6.872;2023-06-14T01:50:13;21.60;36.10
17296;DHT22;8766;51.480;6.872;2023-06-14T01:52:40;21.50;36.10
17296;DHT22;8766;51.480;6.872;2023-06-14T01:55:08;21.50;36.10
17296;DHT22;8766;51.480;6.872;2023-06-14T01:57:36;21.50;36.10
17296;DHT22;8766;51.480;6.872;2023-06-14T02:00:03;21.50;36.20
17296;DHT22;8766;51.480;6.872;2023-06-14T02:02:36;21.40;36.20
17296;DHT22;8766;51.480;6.872;2023-06-14T02:05:03;21.40;36.20
17296;DHT22;8766;51.480;6.872;2023-06-14T02:07:30;21.40;36.30
17296;DHT22;8766;51.480;6.872;2023-06-14T02:09:57;21.30;36.30
17296;DHT22;8766;51.480;6.872;2023-06-14T02:12:24;21.30;36.30
17296;DHT22;8766;51.480;6.872;2023-06-14T02:14:52;21.30;36.30
17296;DHT22;8766;51.480;6.872;2023-06-14T02:17:19;21.30;36.30
17296;DHT22;8766;51.480;6.872;2023-06-14T02:19:46;21.30;36.30
17296;DHT22;8766;51.480;6.872;2023-06-14T02:22:13;21.20;36.30
17296;DHT22;8766;51.480;6.872;2023-06-14T02:24:41;21.10;36.40
17296;DHT22;8766;51.480;6.872;2023-06-14T02:27:08;21.10;36.40
17296;DHT22;8766;51.480;6.872;2023-06-14T02:29:35;21.10;36.50
17296;DHT22;8766;51.480;6.872;2023-06-14T02:32:04;21.10;36.50
17296;DHT22;8766;51.480;6.872;2023-06-14T02:34:32;21.00;36.50
17296;DHT22;8766;51.480;6.872;2023-06-14T02:36:59;21.00;36.60
17296;DHT22;8766;51.480;6.872;2023-06-14T02:39:28;20.90;36.60
17296;DHT22;8766;51.480;6.872;2023-06-14T02:41:55;20.90;36.60
17296;DHT22;8766;51.480;6.872;2023-06-14T02:44:24;20.90;36.60
17296;DHT22;8766;51.480;6.872;2023-06-14T02:46:52;20.90;36.60
17296;DHT22;8766;51.480;6.872;2023-06-14T02:49:20;20.90;36.70
17296;DHT22;8766;51.480;6.872;2023-06-14T02:51:47;20.80;36.60
17296;DHT22;8766;51.480;6.872;2023-06-14T02:54:14;20.80;36.70
17296;DHT22;8766;51.480;6.872;2023-06-14T02:56:41;20.80;36.70
17296;DHT22;8766;51.480;6.872;2023-06-14T02:59:08;20.70;36.70
17296;DHT22;8766;51.480;6.872;2023-06-14T03:01:35;20.70;36.80
17296;DHT22;8766;51.480;6.872;2023-06-14T03:04:06;20.70;36.80
17296;DHT22;8766;51.480;6.872;2023-06-14T03:06:35;20.70;36.80
17296;DHT22;8766;51.480;6.872;2023-06-14T03:09:02;20.70;36.80
17296;DHT22;8766;51.480;6.872;2023-06-14T03:11:30;20.60;36.80
17296;DHT22;8766;51.480;6.872;2023-06-14T03:13:57;20.60;36.80
17296;DHT22;8766;51.480;6.872;2023-06-14T03:16:24;20.60;36.80
17296;DHT22;8766;51.480;6.872;2023-06-14T03:18:54;20.60;36.80
17296;DHT22;8766;51.480;6.872;2023-06-14T03:21:21;20.50;36.80
17296;DHT22;8766;51.480;6.872;2023-06-14T03:23:49;20.50;36.90
17296;DHT22;8766;51.480;6.872;2023-06-14T03:26:16;20.50;36.80
17296;DHT22;8766;51.480;6.872;2023-06-14T03:28:44;20.50;36.90
17296;DHT22;8766;51.480;6.872;2023-06-14T03:31:11;20.50;36.90
17296;DHT22;8766;51.480;6.872;2023-06-14T03:33:38;20.50;36.90
17296;DHT22;8766;51.480;6.872;2023-06-14T03:36:06;20.50;36.90
17296;DHT22;8766;51.480;6.872;2023-06-14T03:38:33;20.50;36.90
17296;DHT22;8766;51.480;6.872;2023-06-14T03:41:02;20.50;36.90
17296;DHT22;8766;51.480;6.872;2023-06-14T03:43:29;20.50;37.50
17296;DHT22;8766;51.480;6.872;2023-06-14T03:45:56;20.40;36.90
17296;DHT22;8766;51.480;6.872;2023-06-14T03:48:23;20.40;36.90
17296;DHT22;8766;51.480;6.872;2023-06-14T03:50:51;20.40;36.90
17296;DHT22;8766;51.480;6.872;2023-06-14T03:53:17;20.40;37.00
17296;DHT22;8766;51.480;6.872;2023-06-14T03:55:46;20.40;37.00
17296;DHT22;8766;51.480;6.872;2023-06-14T03:58:15;20.40;37.00
17296;DHT22;8766;51.480;6.872;2023-06-14T04:00:42;20.40;37.00
17296;DHT22;8766;51.480;6.872;2023-06-14T04:03:09;20.40;36.90
17296;DHT22;8766;51.480;6.872;2023-06-14T04:05:36;20.40;36.80
17296;DHT22;8766;51.480;6.872;2023-06-14T04:08:03;20.40;36.80
17296;DHT22;8766;51.480;6.872;2023-06-14T04:10:30;20.40;36.90
17296;DHT22;8766;51.480;6.872;2023-06-14T04:12:56;20.40;36.80
17296;DHT22;8766;51.480;6.872;2023-06-14T04:15:25;20.40;36.70
17296;DHT22;8766;51.480;6.872;2023-06-14T04:17:53;20.40;36.70
17296;DHT22;8766;51.480;6.872;2023-06-14T04:20:23;20.40;36.70
17296;DHT22;8766;51.480;6.872;2023-06-14T04:22:50;20.50;36.60
17296;DHT22;8766;51.480;6.872;2023-06-14T04:25:18;20.50;36.60
17296;DHT22;8766;51.480;6.872;2023-06-14T04:27:46;20.60;36.50
17296;DHT22;8766;51.480;6.872;2023-06-14T04:30:13;20.60;36.50
17296;DHT22;8766;51.480;6.872;2023-06-14T04:32:41;20.60;36.60
17296;DHT22;8766;51.480;6.872;2023-06-14T04:35:09;20.60;36.50
17296;DHT22;8766;51.480;6.872;2023-06-14T04:37:36;20.60;36.50
17296;DHT22;8766;51.480;6.872;2023-06-14T04:40:10;20.60;36.40
17296;DHT22;8766;51.480;6.872;2023-06-14T04:42:37;20.70;36.30
17296;DHT22;8766;51.480;6.872;2023-06-14T04:45:07;20.90;36.20
17296;DHT22;8766;51.480;6.872;2023-06-14T04:47:35;21.00;36.10
17296;DHT22;8766;51.480;6.872;2023-06-14T04:50:05;21.10;36.00
17296;DHT22;8766;51.480;6.872;2023-06-14T04:52:43;21.70;35.40
17296;DHT22;8766;51.480;6.872;2023-06-14T04:55:10;23.20;33.50
17296;DHT22;8766;51.480;6.872;2023-06-14T04:57:37;24.80;31.20
17296;DHT22;8766;51.480;6.872;2023-06-14T05:00:07;26.20;29.80
17296;DHT22;8766;51.480;6.872;2023-06-14T05:02:37;27.10;29.00
17296;DHT22;8766;51.480;6.872;2023-06-14T05:05:06;27.90;28.50
17296;DHT22;8766;51.480;6.872;2023-06-14T05:07:34;28.40;28.10
17296;DHT22;8766;51.480;6.872;2023-06-14T05:10:01;28.90;27.80
17296;DHT22;8766;51.480;6.872;2023-06-14T05:12:29;29.30;27.60
17296;DHT22;8766;51.480;6.872;2023-06-14T05:14:56;29.80;27.40
17296;DHT22;8766;51.480;6.872;2023-06-14T05:17:24;30.30;27.20
17296;DHT22;8766;51.480;6.872;2023-06-14T05:19:53;30.70;26.90
17296;DHT22;8766;51.480;6.872;2023-06-14T05:22:22;31.20;26.70
17296;DHT22;8766;51.480;6.872;2023-06-14T05:24:50;31.60;26.40
17296;DHT22;8766;51.480;6.872;2023-06-14T05:27:16;31.90;26.30
17296;DHT22;8766;51.480;6.872;2023-06-14T05:29:43;32.40;26.20
17296;DHT22;8766;51.480;6.872;2023-06-14T05:32:10;32.60;26.00
17296;DHT22;8766;51.480;6.872;2023-06-14T05:34:37;33.00;25.90
17296;DHT22;8766;51.480;6.872;2023-06-14T05:37:04;33.30;25.80
17296;DHT22;8766;51.480;6.872;2023-06-14T05:39:32;33.40;25.70
17296;DHT22;8766;51.480;6.872;2023-06-14T05:41:59;33.50;25.70
17296;DHT22;8766;51.480;6.872;2023-06-14T05:44:26;34.00;25.60
17296;DHT22;8766;51.480;6.872;2023-06-14T05:46:53;34.20;25.50
17296;DHT22;8766;51.480;6.872;2023-06-14T05:49:20;34.40;25.40
17296;DHT22;8766;51.480;6.872;2023-06-14T05:51:47;34.50;25.40
17296;DHT22;8766;51.480;6.872;2023-06-14T05:54:14;34.70;25.40
17296;DHT22;8766;51.480;6.872;2023-06-14T05:56:42;35.10;25.20
17296;DHT22;8766;51.480;6.872;2023-06-14T05:59:09;35.50;25.10
17296;DHT22;8766;51.480;6.872;2023-06-14T06:01:36;35.80;24.90
17296;DHT22;8766;51.480;6.872;2023-06-14T06:04:05;36.00;24.80
17296;DHT22;8766;51.480;6.872;2023-06-14T06:06:32;36.40;24.70
17296;DHT22;8766;51.480;6.872;2023-06-14T06:09:00;36.80;24.60
17296;DHT22;8766;51.480;6.872;2023-06-14T06:11:27;37.10;24.50
17296;DHT22;8766;51.480;6.872;2023-06-14T06:13:56;37.40;24.30
17296;DHT22;8766;51.480;6.872;2023-06-14T06:16:23;37.80;24.20
17296;DHT22;8766;51.480;6.872;2023-06-14T06:18:50;38.10;24.20
17296;DHT22;8766;51.480;6.872;2023-06-14T06:21:16;38.00;24.20
17296;DHT22;8766;51.480;6.872;2023-06-14T06:23:43;38.20;24.20
17296;DHT22;8766;51.480;6.872;2023-06-14T06:26:10;38.50;24.10
17296;DHT22;8766;51.480;6.872;2023-06-14T06:28:37;38.80;24.00
17296;DHT22;8766;51.480;6.872;2023-06-14T06:31:05;39.00;24.00
17296;DHT22;8766;51.480;6.872;2023-06-14T06:33:32;39.20;23.90
17296;DHT22;8766;51.480;6.872;2023-06-14T06:35:59;39.50;23.80
17296;DHT22;8766;51.480;6.872;2023-06-14T06:38:26;39.70;23.90
17296;DHT22;8766;51.480;6.872;2023-06-14T06:40:53;39.60;24.00
17296;DHT22;8766;51.480;6.872;2023-06-14T06:43:20;39.60;24.00
17296;DHT22;8766;51.480;6.872;2023-06-14T06:45:47;39.60;24.10
17296;DHT22;8766;51.480;6.872;2023-06-14T06:48:15;39.70;24.00
17296;DHT22;8766;51.480;6.872;2023-06-14T06:50:42;39.70;24.00
17296;DHT22;8766;51.480;6.872;2023-06-14T06:53:09;39.90;24.00
17296;DHT22;8766;51.480;6.872;2023-06-14T06:55:36;40.00;24.00
17296;DHT22;8766;51.480;6.872;2023-06-14T06:58:03;39.90;24.00
17296;DHT22;8766;51.480;6.872;2023-06-14T07:00:31;39.90;24.00
17296;DHT22;8766;51.480;6.872;2023-06-14T07:02:58;40.10;24.00
17296;DHT22;8766;51.480;6.872;2023-06-14T07:05:26;40.10;24.00
17296;DHT22;8766;51.480;6.872;2023-06-14T07:07:53;40.40;23.90
17296;DHT22;8766;51.480;6.872;2023-06-14T07:10:20;40.80;23.70
17296;DHT22;8766;51.480;6.872;2023-06-14T07:12:47;41.20;23.60
17296;DHT22;8766;51.480;6.872;2023-06-14T07:15:15;41.30;23.60
17296;DHT22;8766;51.480;6.872;2023-06-14T07:17:42;41.30;23.50
17296;DHT22;8766;51.480;6.872;2023-06-14T07:20:10;41.50;23.50
17296;DHT22;8766;51.480;6.872;2023-06-14T07:22:40;41.50;23.60
17296;DHT22;8766;51.480;6.872;2023-06-14T07:25:11;41.30;23.70
17296;DHT22;8766;51.480;6.872;2023-06-14T07:27:39;41.50;23.60
17296;DHT22;8766;51.480;6.872;2023-06-14T07:30:07;41.70;23.60
17296;DHT22;8766;51.480;6.872;2023-06-14T07:32:35;41.60;23.60
17296;DHT22;8766;51.480;6.872;2023-06-14T07:35:02;41.60;23.70
17296;DHT22;8766;51.480;6.872;2023-06-14T07:37:29;41.70;23.60
17296;DHT22;8766;51.480;6.872;2023-06-14T07:39:58;41.90;23.60
17296;DHT22;8766;51.480;6.872;2023-06-14T07:42:24;42.00;23.50
17296;DHT22;8766;51.480;6.872;2023-06-14T07:44:51;42.40;23.40
17296;DHT22;8766;51.480;6.872;2023-06-14T07:47:19;42.70;23.30
17296;DHT22;8766;51.480;6.872;2023-06-14T07:49:46;42.50;23.40
17296;DHT22;8766;51.480;6.872;2023-06-14T07:52:13;42.20;23.50
17296;DHT22;8766;51.480;6.872;2023-06-14T07:54:40;42.40;23.50
17296;DHT22;8766;51.480;6.872;2023-06-14T07:57:08;42.60;23.40
17296;DHT22;8766;51.480;6.872;2023-06-14T07:59:35;42.80;23.40
17296;DHT22;8766;51.480;6.872;2023-06-14T08:02:02;43.00;23.30
17296;DHT22;8766;51.480;6.872;2023-06-14T08:04:29;43.10;23.20
17296;DHT22;8766;51.480;6.872;2023-06-14T08:06:56;43.30;23.20
17296;DHT22;8766;51.480;6.872;2023-06-14T08:09:23;43.30;23.20
17296;DHT22;8766;51.480;6.872;2023-06-14T08:11:50;43.00;23.20
17296;DHT22;8766;51.480;6.872;2023-06-14T08:14:19;42.90;23.30
17296;DHT22;8766;51.480;6.872;2023-06-14T08:16:46;42.90;23.30
17296;DHT22;8766;51.480;6.872;2023-06-14T08:19:13;42.70;23.20
17296;DHT22;8766;51.480;6.872;2023-06-14T08:21:42;42.40;23.40
17296;DHT22;8766;51.480;6.872;2023-06-14T08:24:10;42.00;23.50
17296;DHT22;8766;51.480;6.872;2023-06-14T08:26:38;41.90;23.40
17296;DHT22;8766;51.480;6.872;2023-06-14T08:29:05;41.80;23.40
17296;DHT22;8766;51.480;6.872;2023-06-14T08:31:34;41.70;23.30
17296;DHT22;8766;51.480;6.872;2023-06-14T08:34:01;41.30;23.40
17296;DHT22;8766;51.480;6.872;2023-06-14T08:36:27;41.10;23.40
17296;DHT22;8766;51.480;6.872;2023-06-14T08:38:54;40.80;23.50
17296;DHT22;8766;51.480;6.872;2023-06-14T08:41:22;40.80;23.40
17296;DHT22;8766;51.480;6.872;2023-06-14T08:43:50;40.60;23.40
17296;DHT22;8766;51.480;6.872;2023-06-14T08:46:18;40.50;23.40
17296;DHT22;8766;51.480;6.872;2023-06-14T08:48:49;39.90;23.60
17296;DHT22;8766;51.480;6.872;2023-06-14T08:51:18;38.90;24.10
17296;DHT22;8766;51.480;6.872;2023-06-14T08:53:51;37.60;24.80
17296;DHT22;8766;51.480;6.872;2023-06-14T08:56:19;36.40;25.70
17296;DHT22;8766;51.480;6.872;2023-06-14T08:58:48;35.50;26.20
17296;DHT22;8766;51.480;6.872;2023-06-14T09:01:15;34.80;26.80
17296;DHT22;8766;51.480;6.872;2023-06-14T09:03:43;34.20;27.20
17296;DHT22;8766;51.480;6.872;2023-06-14T09:06:11;33.50;27.50
17296;DHT22;8766;51.480;6.872;2023-06-14T09:08:41;33.00;27.90
17296;DHT22;8766;51.480;6.872;2023-06-14T09:11:10;32.60;28.20
17296;DHT22;8766;51.480;6.872;2023-06-14T09:13:38;32.10;28.50
17296;DHT22;8766;51.480;6.872;2023-06-14T09:16:05;31.80;28.70
17296;DHT22;8766;51.480;6.872;2023-06-14T09:18:36;31.60;28.80
17296;DHT22;8766;51.480;6.872;2023-06-14T09:21:03;31.30;29.00
17296;DHT22;8766;51.480;6.872;2023-06-14T09:23:33;30.90;29.30
17296;DHT22;8766;51.480;6.872;2023-06-14T09:26:06;30.70;29.40
17296;DHT22;8766;51.480;6.872;2023-06-14T09:28:33;30.50;29.50
17296;DHT22;8766;51.480;6.872;2023-06-14T09:31:01;30.20;29.60
17296;DHT22;8766;51.480;6.872;2023-06-14T09:33:28;29.90;29.80
17296;DHT22;8766;51.480;6.872;2023-06-14T09:35:55;29.50;30.00
17296;DHT22;8766;51.480;6.872;2023-06-14T09:38:22;29.30;30.10
17296;DHT22;8766;51.480;6.872;2023-06-14T09:40:51;29.30;30.00
17296;DHT22;8766;51.480;6.872;2023-06-14T09:43:19;29.30;30.00
17296;DHT22;8766;51.480;6.872;2023-06-14T09:45:48;29.30;30.00
17296;DHT22;8766;51.480;6.872;2023-06-14T09:48:15;29.20;30.00
17296;DHT22;8766;51.480;6.872;2023-06-14T09:50:45;29.20;29.90
17296;DHT22;8766;51.480;6.872;2023-06-14T09:53:14;29.20;29.90
17296;DHT22;8766;51.480;6.872;2023-06-14T09:55:42;29.20;29.80
17296;DHT22;8766;51.480;6.872;2023-06-14T09:58:12;29.20;29.80
17296;DHT22;8766;51.480;6.872;2023-06-14T10:00:41;29.10;29.80
17296;DHT22;8766;51.480;6.872;2023-06-14T10:03:13;29.10;29.80
17296;DHT22;8766;51.480;6.872;2023-06-14T10:05:43;28.90;29.90
17296;DHT22;8766;51.480;6.872;2023-06-14T10:08:12;28.70;30.00
17296;DHT22;8766;51.480;6.872;2023-06-14T10:10:42;28.60;30.00
17296;DHT22;8766;51.480;6.872;2023-06-14T10:13:11;28.50;30.10
17296;DHT22;8766;51.480;6.872;2023-06-14T10:15:54;28.50;30.10
17296;DHT22;8766;51.480;6.872;2023-06-14T10:18:28;28.50;30.00
17296;DHT22;8766;51.480;6.872;2023-06-14T10:21:04;28.60;30.00
17296;DHT22;8766;51.480;6.872;2023-06-14T10:23:37;28.60;29.90
17296;DHT22;8766;51.480;6.872;2023-06-14T10:26:04;28.60;29.90
17296;DHT22;8766;51.480;6.872;2023-06-14T10:28:33;28.60;29.90
17296;DHT22;8766;51.480;6.872;2023-06-14T10:31:04;28.50;29.90
17296;DHT22;8766;51.480;6.872;2023-06-14T10:33:32;28.50;29.90
17296;DHT22;8766;51.480;6.872;2023-06-14T10:36:10;28.40;29.90
17296;DHT22;8766;51.480;6.872;2023-06-14T10:38:38;28.30;29.90
17296;DHT22;8766;51.480;6.872;2023-06-14T10:41:05;28.30;30.00
17296;DHT22;8766;51.480;6.872;2023-06-14T10:43:34;28.20;30.00
17296;DHT22;8766;51.480;6.872;2023-06-14T10:46:14;28.20;30.00
17296;DHT22;8766;51.480;6.872;2023-06-14T10:48:42;28.20;30.00
17296;DHT22;8766;51.480;6.872;2023-06-14T10:51:16;28.10;30.00
17296;DHT22;8766;51.480;6.872;2023-06-14T10:53:46;28.10;29.90
17296;DHT22;8766;51.480;6.872;2023-06-14T10:56:23;28.20;30.00
17296;DHT22;8766;51.480;6.872;2023-06-14T10:58:53;28.10;29.90
17296;DHT22;8766;51.480;6.872;2023-06-14T11:01:31;28.10;29.90
17296;DHT22;8766;51.480;6.872;2023-06-14T11:04:07;28.20;29.90
17296;DHT22;8766;51.480;6.872;2023-06-14T11:06:45;28.20;29.80
17296;DHT22;8766;51.480;6.872;2023-06-14T11:09:51;28.10;29.80
17296;DHT22;8766;51.480;6.872;2023-06-14T11:12:21;28.10;29.90
17296;DHT22;8766;51.480;6.872;2023-06-14T11:14:50;28.10;29.80
17296;DHT22;8766;51.480;6.872;2023-06-14T11:17:18;28.10;29.70
17296;DHT22;8766;51.480;6.872;2023-06-14T11:19:45;28.00;29.90
17296;DHT22;8766;51.480;6.872;2023-06-14T11:22:12;28.00;29.90
17296;DHT22;8766;51.480;6.872;2023-06-14T11:24:40;28.00;29.80
17296;DHT22;8766;51.480;6.872;2023-06-14T11:27:07;28.10;29.70
17296;DHT22;8766;51.480;6.872;2023-06-14T11:29:34;28.20;29.70
17296;DHT22;8766;51.480;6.872;2023-06-14T11:32:06;28.20;29.60
17296;DHT22;8766;51.480;6.872;2023-06-14T11:34:37;28.10;29.60
17296;DHT22;8766;51.480;6.872;2023-06-14T11:37:05;28.10;29.70
17296;DHT22;8766;51.480;6.872;2023-06-14T11:39:32;28.00;29.70
17296;DHT22;8766;51.480;6.872;2023-06-14T11:41:59;28.10;29.70
17296;DHT22;8766;51.480;6.872;2023-06-14T11:44:29;28.20;29.70
17296;DHT22;8766;51.480;6.872;2023-06-14T11:46:56;28.10;29.70
17296;DHT22;8766;51.480;6.872;2023-06-14T11:49:24;28.10;29.60
17296;DHT22;8766;51.480;6.872;2023-06-14T11:51:53;28.10;29.60
17296;DHT22;8766;51.480;6.872;2023-06-14T11:54:20;28.10;29.60
17296;DHT22;8766;51.480;6.872;2023-06-14T11:56:47;28.10;29.70
17296;DHT22;8766;51.480;6.872;2023-06-14T11:59:14;28.10;29.70
17296;DHT22;8766;51.480;6.872;2023-06-14T12:01:43;28.10;29.60
17296;DHT22;8766;51.480;6.872;2023-06-14T12:04:10;28.10;29.60
17296;DHT22;8766;51.480;6.872;2023-06-14T12:06:39;28.10;29.60
17296;DHT22;8766;51.480;6.872;2023-06-14T12:09:06;28.10;29.60
17296;DHT22;8766;51.480;6.872;2023-06-14T12:11:38;28.10;29.50
17296;DHT22;8766;51.480;6.872;2023-06-14T12:14:06;28.20;29.60
17296;DHT22;8766;51.480;6.872;2023-06-14T12:16:34;28.10;29.60
17296;DHT22;8766;51.480;6.872;2023-06-14T12:19:07;28.00;29.60
17296;DHT22;8766;51.480;6.872;2023-06-14T12:21:37;28.10;29.70
17296;DHT22;8766;51.480;6.872;2023-06-14T12:24:07;28.10;29.60
17296;DHT22;8766;51.480;6.872;2023-06-14T12:26:38;28.10;29.60
17296;DHT22;8766;51.480;6.872;2023-06-14T12:29:05;28.20;29.60
17296;DHT22;8766;51.480;6.872;2023-06-14T12:31:33;28.10;29.60
17296;DHT22;8766;51.480;6.872;2023-06-14T12:34:00;28.10;29.70
17296;DHT22;8766;51.480;6.872;2023-06-14T12:36:27;28.10;29.70
17296;DHT22;8766;51.480;6.872;2023-06-14T12:38:54;28.10;29.60
17296;DHT22;8766;51.480;6.872;2023-06-14T12:41:22;28.10;29.60
17296;DHT22;8766;51.480;6.872;2023-06-14T12:43:50;28.10;29.60
17296;DHT22;8766;51.480;6.872;2023-06-14T12:46:17;28.10;29.60
17296;DHT22;8766;51.480;6.872;2023-06-14T12:48:44;28.10;29.50
17296;DHT22;8766;51.480;6.872;2023-06-14T12:51:11;28.20;29.60
17296;DHT22;8766;51.480;6.872;2023-06-14T12:53:38;28.30;29.60
17296;DHT22;8766;51.480;6.872;2023-06-14T12:56:05;28.30;29.50
17296;DHT22;8766;51.480;6.872;2023-06-14T12:58:33;28.40;29.50
17296;DHT22;8766;51.480;6.872;2023-06-14T13:01:00;28.40;29.50
17296;DHT22;8766;51.480;6.872;2023-06-14T13:03:27;28.40;29.50
17296;DHT22;8766;51.480;6.872;2023-06-14T13:05:54;28.40;29.40
17296;DHT22;8766;51.480;6.872;2023-06-14T13:08:21;28.50;29.50
17296;DHT22;8766;51.480;6.872;2023-06-14T13:10:49;28.50;29.50
17296;DHT22;8766;51.480;6.872;2023-06-14T13:13:16;28.50;29.40
17296;DHT22;8766;51.480;6.872;2023-06-14T13:15:44;28.50;29.40
17296;DHT22;8766;51.480;6.872;2023-06-14T13:18:12;28.60;29.40
17296;DHT22;8766;51.480;6.872;2023-06-14T13:20:39;28.60;29.30
17296;DHT22;8766;51.480;6.872;2023-06-14T13:23:06;28.60;29.30
17296;DHT22;8766;51.480;6.872;2023-06-14T13:25:34;28.60;29.40
17296;DHT22;8766;51.480;6.872;2023-06-14T13:28:01;28.60;29.40
17296;DHT22;8766;51.480;6.872;2023-06-14T13:30:28;28.60;29.40
17296;DHT22;8766;51.480;6.872;2023-06-14T13:32:56;28.60;29.40
17296;DHT22;8766;51.480;6.872;2023-06-14T13:35:24;28.50;29.50
17296;DHT22;8766;51.480;6.872;2023-06-14T13:37:51;28.50;29.50
17296;DHT22;8766;51.480;6.872;2023-06-14T13:40:18;28.50;29.50
17296;DHT22;8766;51.480;6.872;2023-06-14T13:42:46;28.50;29.90
17296;DHT22;8766;51.480;6.872;2023-06-14T13:45:13;28.60;29.50
17296;DHT22;8766;51.480;6.872;2023-06-14T13:47:40;28.50;29.50
17296;DHT22;8766;51.480;6.872;2023-06-14T13:50:09;28.60;29.50
17296;DHT22;8766;51.480;6.872;2023-06-14T13:52:36;28.60;29.50
17296;DHT22;8766;51.480;6.872;2023-06-14T13:55:03;28.60;29.40
17296;DHT22;8766;51.480;6.872;2023-06-14T13:57:30;28.70;29.40
17296;DHT22;8766;51.480;6.872;2023-06-14T13:59:58;28.80;29.30
17296;DHT22;8766;51.480;6.872;2023-06-14T14:02:26;28.90;29.30
17296;DHT22;8766;51.480;6.872;2023-06-14T14:04:54;28.90;29.30
17296;DHT22;8766;51.480;6.872;2023-06-14T14:07:22;28.90;29.30
17296;DHT22;8766;51.480;6.872;2023-06-14T14:09:49;28.80;29.30
17296;DHT22;8766;51.480;6.872;2023-06-14T14:12:16;28.80;29.30
17296;DHT22;8766;51.480;6.872;2023-06-14T14:14:43;28.80;29.40
17296;DHT22;8766;51.480;6.872;2023-06-14T14:17:11;28.70;29.50
17296;DHT22;8766;51.480;6.872;2023-06-14T14:19:38;28.70;29.40
17296;DHT22;8766;51.480;6.872;2023-06-14T14:22:05;28.70;29.40
17296;DHT22;8766;51.480;6.872;2023-06-14T14:24:34;28.80;29.40
17296;DHT22;8766;51.480;6.872;2023-06-14T14:27:01;28.90;29.30
17296;DHT22;8766;51.480;6.872;2023-06-14T14:29:28;29.00;29.30
17296;DHT22;8766;51.480;6.872;2023-06-14T14:31:55;29.00;29.20
17296;DHT22;8766;51.480;6.872;2023-06-14T14:34:22;29.10;29.20
17296;DHT22;8766;51.480;6.872;2023-06-14T14:36:49;29.10;29.20
17296;DHT22;8766;51.480;6.872;2023-06-14T14:39:16;29.00;29.20
17296;DHT22;8766;51.480;6.872;2023-06-14T14:41:44;29.00;29.30
17296;DHT22;8766;51.480;6.872;2023-06-14T14:44:11;28.90;29.40
17296;DHT22;8766;51.480;6.872;2023-06-14T14:46:38;28.80;29.40
17296;DHT22;8766;51.480;6.872;2023-06-14T14:49:05;28.80;29.40
17296;DHT22;8766;51.480;6.872;2023-06-14T14:51:32;28.80;29.40
17296;DHT22;8766;51.480;6.872;2023-06-14T14:53:59;28.90;29.40
17296;DHT22;8766;51.480;6.872;2023-06-14T14:56:26;28.90;29.30
17296;DHT22;8766;51.480;6.872;2023-06-14T14:58:54;28.90;29.50
17296;DHT22;8766;51.480;6.872;2023-06-14T15:01:21;28.90;29.50
17296;DHT22;8766;51.480;6.872;2023-06-14T15:03:48;28.90;29.50
17296;DHT22;8766;51.480;6.872;2023-06-14T15:06:15;28.80;29.40
17296;DHT22;8766;51.480;6.872;2023-06-14T15:08:43;28.90;29.40
17296;DHT22;8766;51.480;6.872;2023-06-14T15:11:10;28.90;29.40
17296;DHT22;8766;51.480;6.872;2023-06-14T15:13:37;28.90;29.40
17296;DHT22;8766;51.480;6.872;2023-06-14T15:16:05;28.90;29.40
17296;DHT22;8766;51.480;6.872;2023-06-14T15:18:32;28.90;29.50
17296;DHT22;8766;51.480;6.872;2023-06-14T15:20:59;28.80;29.40
17296;DHT22;8766;51.480;6.872;2023-06-14T15:23:26;28.80;29.50
17296;DHT22;8766;51.480;6.872;2023-06-14T15:25:53;28.80;29.50
17296;DHT22;8766;51.480;6.872;2023-06-14T15:28:22;28.80;29.50
17296;DHT22;8766;51.480;6.872;2023-06-14T15:30:53;28.70;29.50
17296;DHT22;8766;51.480;6.872;2023-06-14T15:33:22;28.70;29.60
17296;DHT22;8766;51.480;6.872;2023-06-14T15:35:50;28.60;29.50
17296;DHT22;8766;51.480;6.872;2023-06-14T15:38:17;28.60;29.60
17296;DHT22;8766;51.480;6.872;2023-06-14T15:40:44;28.60;29.50
17296;DHT22;8766;51.480;6.872;2023-06-14T15:43:11;28.60;29.60
17296;DHT22;8766;51.480;6.872;2023-06-14T15:45:38;28.60;29.60
17296;DHT22;8766;51.480;6.872;2023-06-14T15:48:06;28.60;29.60
17296;DHT22;8766;51.480;6.872;2023-06-14T15:50:35;28.60;29.50